Time;durP1;ratioP1;P1;durP2;ratioP2;P2;SDS_P1;SDS_P2;PMS_P1;PMS_P2;Temp;Humidity;BMP_temperature;BMP_pressure;BME280_temperature;BME280_humidity;BME280_pressure;Samples;Min_cycle;Max_cycle;Signal;HPM_P1;HPM_P2
2021/05/21 00:00:06;;;;;;;2.37;2.17;;;12.80;99.90;;;;;;4992763;28;20480;-68
2021/05/21 00:02:36;;;;;;;4.77;3.30;;;12.90;99.90;;;;;;4992347;28;20435;-67
2021/05/21 00:05:05;;;;;;;2.50;2.30;;;12.90;99.90;;;;;;4992528;28;20798;-67
2021/05/21 00:07:32;;;;;;;2.00;1.90;;;12.90;99.90;;;;;;4992538;28;20418;-68
2021/05/21 00:10:00;;;;;;;3.83;2.13;;;12.90;99.90;;;;;;4992663;28;20421;-67
2021/05/21 00:12:27;;;;;;;3.80;2.07;;;12.90;99.90;;;;;;4992832;28;20446;-69
2021/05/21 00:14:56;;;;;;;2.80;2.27;;;12.90;99.90;;;;;;4993063;28;20470;-68
2021/05/21 00:17:24;;;;;;;3.83;2.23;;;12.80;99.90;;;;;;4992849;28;20384;-66
2021/05/21 00:19:52;;;;;;;3.20;2.90;;;12.90;99.90;;;;;;4993756;28;20384;-69
2021/05/21 00:22:19;;;;;;;2.87;2.37;;;12.70;99.90;;;;;;4993316;28;20450;-68
2021/05/21 00:24:47;;;;;;;3.10;1.77;;;12.70;99.90;;;;;;4992528;28;20393;-68
2021/05/21 00:27:14;;;;;;;3.20;1.73;;;12.70;99.90;;;;;;4992236;28;20814;-68
2021/05/21 00:29:43;;;;;;;4.20;2.33;;;12.70;99.90;;;;;;4990596;28;20412;-67
2021/05/21 00:32:11;;;;;;;2.83;2.10;;;12.80;99.90;;;;;;4991515;28;20444;-67
2021/05/21 00:34:39;;;;;;;2.47;2.00;;;12.80;99.90;;;;;;4992285;28;20523;-68
2021/05/21 00:37:07;;;;;;;1.70;1.60;;;12.80;99.90;;;;;;4992006;28;20411;-68
2021/05/21 00:39:34;;;;;;;2.73;2.47;;;12.70;99.90;;;;;;4992039;28;20409;-67
2021/05/21 00:42:02;;;;;;;2.60;1.90;;;12.70;99.90;;;;;;4991775;28;20381;-67
2021/05/21 00:44:30;;;;;;;2.70;2.40;;;12.70;99.90;;;;;;4991945;28;20388;-66
2021/05/21 00:46:57;;;;;;;6.43;4.17;;;12.70;99.90;;;;;;4996022;28;20453;-67
2021/05/21 00:49:26;;;;;;;3.20;2.60;;;12.80;99.90;;;;;;4992833;28;20495;-67
2021/05/21 00:51:54;;;;;;;2.30;2.00;;;12.80;99.90;;;;;;4991704;28;20402;-66
2021/05/21 00:54:21;;;;;;;2.43;2.10;;;12.70;99.90;;;;;;4991660;28;20424;-67
2021/05/21 00:56:49;;;;;;;2.47;2.27;;;12.70;99.90;;;;;;4991945;28;20397;-65
2021/05/21 00:59:16;;;;;;;2.10;1.60;;;12.60;99.90;;;;;;4991877;28;20524;-66
2021/05/21 01:01:46;;;;;;;3.60;2.90;;;12.60;99.90;;;;;;4991795;28;20492;-68
2021/05/21 01:04:14;;;;;;;3.13;2.83;;;12.50;99.90;;;;;;4991458;28;20789;-69
2021/05/21 01:06:43;;;;;;;4.97;2.30;;;12.50;99.90;;;;;;4991867;28;20467;-67
2021/05/21 01:09:10;;;;;;;3.23;2.27;;;12.50;99.90;;;;;;4991628;28;20980;-68
2021/05/21 01:11:38;;;;;;;2.70;2.37;;;12.40;99.90;;;;;;4991783;28;20818;-68
2021/05/21 01:14:06;;;;;;;2.70;2.20;;;12.40;99.90;;;;;;4991772;28;20454;-68
2021/05/21 01:16:33;;;;;;;1.73;1.30;;;12.40;99.90;;;;;;4991624;28;20473;-67
2021/05/21 01:19:04;;;;;;;2.40;2.20;;;12.40;99.90;;;;;;4991719;28;20414;-68
2021/05/21 01:21:35;;;;;;;4.13;2.53;;;12.40;99.90;;;;;;4991672;28;20407;-68
2021/05/21 01:24:04;;;;;;;3.50;2.33;;;12.30;99.90;;;;;;4991289;28;20421;-68
2021/05/21 01:26:32;;;;;;;1.90;1.60;;;12.20;99.90;;;;;;4990368;28;20431;-66
2021/05/21 01:29:00;;;;;;;4.43;2.43;;;12.30;99.90;;;;;;4991501;28;20420;-68
2021/05/21 01:31:29;;;;;;;2.87;2.13;;;12.30;99.90;;;;;;4991465;28;20409;-68
2021/05/21 01:33:56;;;;;;;3.00;1.87;;;12.30;99.90;;;;;;4991426;28;20450;-66
2021/05/21 01:36:24;;;;;;;3.67;2.90;;;12.30;99.90;;;;;;4991432;28;20959;-66
2021/05/21 01:38:57;;;;;;;2.90;2.70;;;12.30;99.90;;;;;;4991490;28;20377;-66
2021/05/21 01:41:26;;;;;;;2.30;2.00;;;12.30;99.90;;;;;;4991497;28;20480;-67
2021/05/21 01:43:56;;;;;;;2.13;2.00;;;12.30;99.90;;;;;;4991430;28;20493;-67
2021/05/21 01:46:24;;;;;;;3.17;2.80;;;12.20;99.90;;;;;;4991417;28;20472;-67
2021/05/21 01:48:51;;;;;;;3.13;2.50;;;12.10;99.90;;;;;;4993020;28;20396;-68
2021/05/21 01:51:19;;;;;;;4.53;2.60;;;12.10;99.90;;;;;;4994853;28;20429;-67
2021/05/21 01:53:47;;;;;;;2.93;2.50;;;12.00;99.90;;;;;;4993839;28;20451;-66
2021/05/21 01:56:15;;;;;;;3.00;2.70;;;11.90;99.90;;;;;;5010070;28;20444;-68
2021/05/21 01:58:43;;;;;;;3.30;2.93;;;11.80;99.90;;;;;;4995124;28;20900;-67
2021/05/21 02:01:11;;;;;;;4.77;2.70;;;11.60;99.90;;;;;;4994995;28;20870;-67
2021/05/21 02:03:38;;;;;;;2.80;2.17;;;11.60;99.90;;;;;;4994780;28;21035;-67
2021/05/21 02:06:06;;;;;;;3.77;2.73;;;11.70;99.90;;;;;;4994971;28;20758;-67
2021/05/21 02:08:34;;;;;;;2.60;2.40;;;11.70;99.90;;;;;;5010145;28;20788;-68
2021/05/21 02:11:01;;;;;;;4.13;3.17;;;11.70;99.90;;;;;;4994905;28;20429;-68
2021/05/21 02:13:30;;;;;;;5.00;2.37;;;11.70;99.90;;;;;;4994866;28;20488;-68
2021/05/21 02:15:57;;;;;;;3.00;2.70;;;11.70;99.90;;;;;;4994795;28;20456;-68
2021/05/21 02:18:25;;;;;;;2.33;2.13;;;11.70;99.90;;;;;;4994654;28;20388;-67
2021/05/21 02:20:53;;;;;;;2.53;2.33;;;11.80;99.90;;;;;;4994599;28;20512;-67
2021/05/21 02:23:20;;;;;;;3.40;3.10;;;11.80;99.90;;;;;;4994431;28;20548;-67
2021/05/21 02:25:48;;;;;;;4.03;2.50;;;11.80;99.90;;;;;;4994635;28;20388;-68
2021/05/21 02:28:16;;;;;;;5.70;2.77;;;11.80;99.90;;;;;;5018416;23;20514;-67
2021/05/21 02:30:44;;;;;;;4.43;2.63;;;11.80;99.90;;;;;;5033839;28;20461;-67
2021/05/21 02:33:12;;;;;;;2.43;2.00;;;11.90;99.90;;;;;;5033858;28;20447;-67
2021/05/21 02:35:40;;;;;;;3.50;2.93;;;11.90;99.90;;;;;;5034047;28;20555;-67
2021/05/21 02:38:07;;;;;;;2.93;2.47;;;12.00;99.90;;;;;;5034036;28;20394;-67
2021/05/21 02:40:35;;;;;;;3.00;2.47;;;11.90;99.90;;;;;;5034445;28;20447;-67
2021/05/21 02:43:02;;;;;;;2.43;2.23;;;11.90;99.90;;;;;;5033973;28;20451;-66
2021/05/21 02:45:30;;;;;;;2.60;2.40;;;11.80;99.90;;;;;;5033989;28;20412;-67
2021/05/21 02:47:58;;;;;;;3.10;2.13;;;11.80;99.90;;;;;;5034902;28;20409;-67
2021/05/21 02:50:26;;;;;;;3.20;2.50;;;11.80;99.90;;;;;;5034192;28;20384;-67
2021/05/21 02:52:54;;;;;;;2.33;2.13;;;11.80;99.90;;;;;;5033912;28;20433;-67
2021/05/21 02:55:21;;;;;;;3.53;2.70;;;11.80;99.90;;;;;;5034013;28;22406;-68
2021/05/21 02:57:49;;;;;;;6.23;2.67;;;11.60;99.90;;;;;;5034297;28;20758;-67
2021/05/21 03:00:19;;;;;;;3.47;2.90;;;11.60;99.90;;;;;;5032521;28;20387;-67
2021/05/21 03:02:46;;;;;;;5.03;2.93;;;11.40;99.90;;;;;;5033267;28;21058;-67
2021/05/21 03:05:20;;;;;;;3.37;2.80;;;11.40;99.90;;;;;;5033142;28;20908;-67
2021/05/21 03:07:51;;;;;;;3.57;3.10;;;11.30;99.90;;;;;;5033155;28;20444;-67
2021/05/21 03:10:19;;;;;;;3.50;2.55;;;11.30;99.90;;;;;;5033282;28;20412;-68
2021/05/21 03:12:46;;;;;;;2.87;2.13;;;11.20;99.90;;;;;;5032986;28;20213;-68
2021/05/21 03:15:14;;;;;;;2.53;2.30;;;11.20;99.90;;;;;;5032230;28;20402;-68
2021/05/21 03:17:42;;;;;;;2.70;2.00;;;11.30;99.90;;;;;;5033043;28;20420;-67
2021/05/21 03:20:11;;;;;;;4.33;2.77;;;11.30;99.90;;;;;;5033034;28;20402;-67
2021/05/21 03:22:39;;;;;;;2.23;2.00;;;11.30;99.90;;;;;;5033043;28;20407;-69
2021/05/21 03:25:08;;;;;;;3.43;2.43;;;11.40;99.90;;;;;;5032854;28;20412;-67
2021/05/21 03:27:35;;;;;;;3.23;2.93;;;11.40;99.90;;;;;;5032513;28;20436;-67
2021/05/21 03:30:05;;;;;;;2.73;2.40;;;11.40;99.90;;;;;;5032948;28;20394;-67
2021/05/21 03:32:32;;;;;;;2.70;2.07;;;11.50;99.90;;;;;;5032549;28;20459;-67
2021/05/21 03:35:00;;;;;;;4.60;2.47;;;11.50;99.90;;;;;;5032564;28;20391;-68
2021/05/21 03:37:28;;;;;;;4.33;3.13;;;11.60;99.90;;;;;;5032647;28;20986;-67
2021/05/21 03:39:56;;;;;;;2.63;2.43;;;11.70;99.90;;;;;;5032511;28;20504;-68
2021/05/21 03:42:24;;;;;;;2.10;1.87;;;11.90;99.90;;;;;;5032490;28;20448;-68
2021/05/21 03:44:52;;;;;;;2.07;1.83;;;11.90;99.90;;;;;;5032409;28;20441;-68
2021/05/21 03:47:20;;;;;;;2.67;2.03;;;12.10;99.90;;;;;;5032352;28;20402;-68
2021/05/21 03:49:48;;;;;;;2.63;2.40;;;12.20;99.90;;;;;;5032281;28;20420;-68
2021/05/21 03:52:15;;;;;;;2.97;2.67;;;12.30;99.90;;;;;;5032194;28;20432;-68
2021/05/21 03:54:43;;;;;;;2.90;2.03;;;12.40;99.90;;;;;;5032005;28;20394;-68
2021/05/21 03:57:12;;;;;;;3.47;2.97;;;12.50;99.90;;;;;;5032078;28;20456;-68
2021/05/21 03:59:39;;;;;;;2.50;2.30;;;12.90;99.90;;;;;;5031851;28;20382;-68
2021/05/21 04:02:07;;;;;;;4.13;2.30;;;13.80;99.90;;;;;;5032096;28;20433;-68
2021/05/21 04:04:34;;;;;;;2.60;2.23;;;14.20;99.90;;;;;;5031962;28;20703;-67
2021/05/21 04:07:02;;;;;;;2.70;2.17;;;14.10;99.90;;;;;;5032059;28;20379;-67
2021/05/21 04:09:30;;;;;;;3.13;2.57;;;13.60;99.90;;;;;;5032002;28;20414;-66
2021/05/21 04:11:58;;;;;;;2.50;2.23;;;13.40;99.90;;;;;;5031567;28;20387;-67
2021/05/21 04:14:27;;;;;;;2.57;2.20;;;13.30;99.90;;;;;;5031619;28;20425;-66
2021/05/21 04:16:55;;;;;;;2.10;1.90;;;13.10;99.90;;;;;;5031632;28;20522;-66
2021/05/21 04:19:22;;;;;;;2.47;1.97;;;13.00;99.90;;;;;;5032030;28;20760;-67
2021/05/21 04:21:50;;;;;;;4.90;2.60;;;13.00;99.90;;;;;;5030924;28;20543;-67
2021/05/21 04:24:18;;;;;;;3.53;2.87;;;12.90;99.90;;;;;;5031521;28;20759;-67
2021/05/21 04:26:45;;;;;;;2.37;2.17;;;12.80;99.90;;;;;;5030482;28;20804;-67
2021/05/21 04:29:16;;;;;;;1.83;1.63;;;12.80;99.90;;;;;;5031647;28;20415;-67
2021/05/21 04:31:44;;;;;;;3.30;2.60;;;12.90;99.90;;;;;;5031450;28;20420;-68
2021/05/21 04:34:12;;;;;;;2.70;2.40;;;13.90;99.90;;;;;;5031465;28;20479;-67
2021/05/21 04:36:39;;;;;;;2.87;2.17;;;14.80;99.90;;;;;;5031563;28;20980;-65
2021/05/21 04:39:07;;;;;;;4.10;2.63;;;16.30;99.90;;;;;;5031423;28;20478;-66
2021/05/21 04:41:35;;;;;;;4.53;2.63;;;18.60;99.90;;;;;;5031217;28;20394;-67
2021/05/21 04:44:03;;;;;;;2.67;2.10;;;20.20;99.90;;;;;;5030839;28;20422;-67
2021/05/21 04:46:30;;;;;;;3.00;2.70;;;21.20;99.90;;;;;;5031508;28;20420;-68
2021/05/21 04:48:59;;;;;;;2.80;2.60;;;22.20;99.90;;;;;;5029858;28;20407;-68
2021/05/21 04:51:26;;;;;;;3.57;2.20;;;23.20;99.90;;;;;;5031206;28;20401;-67
2021/05/21 04:53:54;;;;;;;3.50;2.50;;;23.30;99.90;;;;;;5031005;28;20410;-68
2021/05/21 04:56:22;;;;;;;2.37;2.17;;;23.60;99.90;;;;;;5031103;28;20447;-67
2021/05/21 04:58:49;;;;;;;2.50;1.70;;;24.00;99.90;;;;;;5031320;28;20780;-67
2021/05/21 05:01:18;;;;;;;2.77;2.20;;;24.90;99.90;;;;;;5031268;28;20922;-68
2021/05/21 05:03:45;;;;;;;3.37;2.03;;;24.70;99.90;;;;;;5031056;28;20971;-67
2021/05/21 05:06:14;;;;;;;3.03;2.60;;;25.00;99.90;;;;;;5031369;28;20408;-67
2021/05/21 05:08:42;;;;;;;4.23;2.53;;;25.70;99.90;;;;;;5031156;28;20470;-67
2021/05/21 05:11:10;;;;;;;2.80;2.50;;;26.20;99.90;;;;;;5030922;28;20450;-67
2021/05/21 05:13:37;;;;;;;2.70;2.50;;;26.40;99.90;;;;;;5030517;28;20454;-68
2021/05/21 05:16:06;;;;;;;3.37;2.80;;;27.00;99.90;;;;;;5030697;28;20399;-68
2021/05/21 05:18:33;;;;;;;2.33;2.13;;;27.70;99.90;;;;;;5030888;28;20416;-67
2021/05/21 05:21:01;;;;;;;2.73;2.10;;;28.00;99.90;;;;;;5030666;28;20454;-66
2021/05/21 05:23:34;;;;;;;3.83;2.23;;;27.90;99.90;;;;;;5032372;28;20463;-66
2021/05/21 05:26:02;;;;;;;3.13;2.83;;;27.80;99.90;;;;;;5035027;28;20432;-67
2021/05/21 05:28:30;;;;;;;3.10;2.77;;;25.50;99.90;;;;;;5034437;28;20475;-67
2021/05/21 05:30:57;;;;;;;2.60;1.97;;;23.00;99.90;;;;;;5035878;28;20399;-67
2021/05/21 05:33:28;;;;;;;6.63;2.73;;;21.00;99.90;;;;;;5035567;28;20833;-67
2021/05/21 05:35:55;;;;;;;2.30;2.10;;;18.80;99.90;;;;;;5034987;28;20417;-68
2021/05/21 05:38:23;;;;;;;3.50;2.60;;;17.60;99.90;;;;;;5035018;28;20416;-67
2021/05/21 05:40:52;;;;;;;3.80;2.20;;;16.90;99.90;;;;;;5033359;28;20450;-67
2021/05/21 05:43:19;;;;;;;3.03;2.13;;;16.40;99.90;;;;;;5033140;28;20434;-67
2021/05/21 05:45:47;;;;;;;2.30;2.10;;;16.20;99.90;;;;;;5034473;28;20402;-67
2021/05/21 05:48:17;;;;;;;3.67;2.67;;;16.00;99.90;;;;;;5034656;28;20410;-67
2021/05/21 05:50:46;;;;;;;5.60;2.03;;;15.70;99.90;;;;;;5034442;28;20486;-67
2021/05/21 05:53:13;;;;;;;2.40;2.20;;;15.40;99.90;;;;;;5034652;28;20942;-67
2021/05/21 05:55:41;;;;;;;2.70;2.30;;;15.50;99.90;;;;;;5034399;28;20410;-67
2021/05/21 05:58:10;;;;;;;2.87;2.67;;;15.40;99.90;;;;;;5034057;28;20446;-66
2021/05/21 06:00:38;;;;;;;2.20;1.67;;;15.20;99.90;;;;;;5034287;28;20391;-67
2021/05/21 06:03:07;;;;;;;4.23;2.23;;;15.20;99.90;;;;;;5034078;28;20421;-68
2021/05/21 06:05:35;;;;;;;2.87;2.67;;;15.30;99.90;;;;;;5034193;28;20393;-68
2021/05/21 06:08:05;;;;;;;2.43;2.17;;;15.40;99.90;;;;;;5032623;28;20836;-68
2021/05/21 06:10:33;;;;;;;3.07;2.40;;;15.70;99.90;;;;;;5032634;28;20431;-67
2021/05/21 06:13:03;;;;;;;2.50;1.80;;;16.20;99.90;;;;;;5033844;28;20410;-67
2021/05/21 06:15:32;;;;;;;2.67;1.97;;;16.20;99.90;;;;;;5034059;28;20391;-66
2021/05/21 06:18:00;;;;;;;1.90;1.73;;;16.30;99.90;;;;;;5033790;28;20899;-67
2021/05/21 06:20:30;;;;;;;2.87;1.57;;;16.60;99.90;;;;;;5034138;28;20940;-66
2021/05/21 06:22:58;;;;;;;2.33;2.10;;;16.60;99.90;;;;;;5033831;28;20419;-66
2021/05/21 06:25:39;;;;;;;3.37;2.33;;;16.70;99.90;;;;;;5034375;28;20932;-68
2021/05/21 06:28:07;;;;;;;3.60;1.80;;;16.90;99.90;;;;;;5033470;28;20439;-67
2021/05/21 06:30:36;;;;;;;2.27;1.60;;;17.10;99.90;;;;;;5033824;28;20395;-67
2021/05/21 06:33:04;;;;;;;3.37;1.73;;;17.10;99.90;;;;;;5033738;28;20419;-68
2021/05/21 06:35:34;;;;;;;2.50;1.90;;;17.30;99.90;;;;;;5033607;28;20387;-66
2021/05/21 06:38:03;;;;;;;2.20;1.80;;;17.30;99.90;;;;;;5033966;28;20465;-67
2021/05/21 06:40:31;;;;;;;1.70;1.30;;;17.30;99.90;;;;;;5033664;28;20934;-67
2021/05/21 06:42:58;;;;;;;2.30;1.40;;;17.10;99.90;;;;;;5032137;28;20494;-67
2021/05/21 06:45:26;;;;;;;2.10;1.50;;;17.00;99.90;;;;;;5033677;28;20408;-67
2021/05/21 06:47:55;;;;;;;1.90;1.60;;;17.00;99.90;;;;;;5033464;28;20429;-67
2021/05/21 06:50:23;;;;;;;2.13;1.53;;;17.30;99.90;;;;;;5032081;28;20424;-67
2021/05/21 06:52:50;;;;;;;2.60;1.33;;;17.60;99.90;;;;;;5033583;28;20429;-68
2021/05/21 06:55:18;;;;;;;1.70;1.60;;;17.90;99.90;;;;;;5033458;28;20383;-67
2021/05/21 06:57:45;;;;;;;2.33;1.83;;;18.30;99.90;;;;;;5033237;28;20455;-66
2021/05/21 07:00:14;;;;;;;1.83;1.40;;;18.50;99.90;;;;;;5032993;28;20438;-67
2021/05/21 07:02:42;;;;;;;1.40;1.20;;;18.70;99.90;;;;;;5033257;28;20466;-68
2021/05/21 07:05:13;;;;;;;1.97;1.63;;;18.70;99.90;;;;;;5033048;28;20383;-68
2021/05/21 07:07:41;;;;;;;1.63;1.53;;;18.90;99.90;;;;;;5033117;28;21125;-68
2021/05/21 07:10:09;;;;;;;2.50;1.37;;;18.90;99.90;;;;;;5032863;28;20405;-67
2021/05/21 07:12:37;;;;;;;1.90;1.70;;;18.80;99.90;;;;;;5032722;28;20411;-67
2021/05/21 07:15:06;;;;;;;3.10;1.73;;;18.80;99.90;;;;;;5032740;28;20427;-67
2021/05/21 07:17:34;;;;;;;1.83;1.43;;;18.90;99.90;;;;;;5032797;28;20558;-67
2021/05/21 07:20:03;;;;;;;4.00;2.00;;;19.00;99.90;;;;;;5032774;28;20955;-67
2021/05/21 07:22:31;;;;;;;2.10;1.70;;;19.10;99.90;;;;;;5032815;28;20960;-67
2021/05/21 07:24:59;;;;;;;2.03;1.83;;;19.00;99.90;;;;;;5032739;28;20420;-69
2021/05/21 07:27:27;;;;;;;2.13;1.93;;;18.80;99.90;;;;;;5032768;28;20407;-67
2021/05/21 07:29:55;;;;;;;1.50;1.00;;;18.90;99.90;;;;;;5032806;28;20386;-68
2021/05/21 07:32:22;;;;;;;4.40;1.20;;;18.80;99.90;;;;;;5033184;28;20444;-67
2021/05/21 07:34:50;;;;;;;1.57;0.97;;;18.90;99.90;;;;;;5033667;28;20419;-68
2021/05/21 07:37:18;;;;;;;2.37;1.70;;;19.20;99.90;;;;;;5033746;28;20498;-67
2021/05/21 07:39:47;;;;;;;1.33;1.23;;;19.40;99.90;;;;;;5032201;28;20428;-67
2021/05/21 07:42:15;;;;;;;1.60;1.33;;;19.20;99.90;;;;;;5033046;28;20419;-67
2021/05/21 07:44:42;;;;;;;1.67;1.20;;;19.10;99.90;;;;;;5032706;28;20470;-69
2021/05/21 07:47:10;;;;;;;2.03;1.33;;;19.10;99.90;;;;;;5031419;28;20416;-67
2021/05/21 07:49:41;;;;;;;1.63;1.20;;;18.90;99.90;;;;;;5032059;28;20424;-67
2021/05/21 07:52:09;;;;;;;2.07;1.70;;;18.80;99.90;;;;;;5032144;28;20936;-67
2021/05/21 07:54:36;;;;;;;1.60;1.40;;;18.90;99.90;;;;;;5031911;28;20423;-68
2021/05/21 07:57:06;;;;;;;4.57;1.30;;;18.70;99.90;;;;;;5031772;28;21015;-67
2021/05/21 07:59:33;;;;;;;3.43;1.20;;;18.70;99.90;;;;;;5032184;28;20405;-69
2021/05/21 08:02:01;;;;;;;1.60;1.33;;;18.70;99.90;;;;;;5031863;28;20408;-66
2021/05/21 08:04:29;;;;;;;1.53;1.27;;;18.70;99.90;;;;;;5031903;28;20426;-66
2021/05/21 08:06:56;;;;;;;2.27;0.93;;;18.80;99.90;;;;;;5031814;28;20432;-67
2021/05/21 08:09:24;;;;;;;1.77;1.10;;;18.70;99.90;;;;;;5032164;28;20920;-68
2021/05/21 08:11:52;;;;;;;2.20;1.20;;;18.90;99.90;;;;;;5032200;28;20431;-67
2021/05/21 08:14:21;;;;;;;2.50;1.30;;;19.30;99.90;;;;;;5031822;28;20959;-68
2021/05/21 08:16:49;;;;;;;1.70;1.03;;;19.50;99.90;;;;;;5031915;28;20409;-68
2021/05/21 08:19:29;;;;;;;2.13;1.00;;;19.70;99.90;;;;;;5032223;28;20775;-69
2021/05/21 08:21:56;;;;;;;2.17;1.70;;;20.00;99.90;;;;;;5031477;28;20416;-69
2021/05/21 08:24:24;;;;;;;1.57;1.07;;;20.00;99.90;;;;;;5031651;28;20424;-68
2021/05/21 08:26:51;;;;;;;1.73;1.13;;;19.90;99.90;;;;;;5031618;28;20416;-68
2021/05/21 08:29:19;;;;;;;1.20;0.90;;;19.60;99.90;;;;;;5027812;23;21014;-67
2021/05/21 08:31:48;;;;;;;1.43;1.10;;;19.30;99.90;;;;;;4974574;28;20423;-67
2021/05/21 08:34:16;;;;;;;1.83;1.27;;;19.10;99.90;;;;;;5006959;28;20496;-68
2021/05/21 08:36:43;;;;;;;1.80;1.00;;;19.20;99.90;;;;;;4992138;28;20404;-67
2021/05/21 08:39:12;;;;;;;1.63;1.43;;;19.30;99.90;;;;;;4991745;28;20505;-67
2021/05/21 08:41:44;;;;;;;1.70;1.00;;;19.20;99.90;;;;;;5006594;28;20468;-68
2021/05/21 08:44:12;;;;;;;3.07;1.27;;;19.40;99.90;;;;;;4991571;28;20432;-68
2021/05/21 08:46:39;;;;;;;1.30;1.00;;;19.50;99.90;;;;;;4991950;28;20407;-70
2021/05/21 08:49:08;;;;;;;2.80;0.93;;;19.50;99.90;;;;;;4991881;28;20782;-67
2021/05/21 08:51:35;;;;;;;1.40;0.83;;;19.30;99.90;;;;;;4991759;28;20389;-69
2021/05/21 08:54:23;;;;;;;2.20;1.27;;;19.10;99.90;;;;;;4991940;28;20533;-67
2021/05/21 08:56:51;;;;;;;2.10;1.17;;;18.90;99.90;;;;;;4991836;28;20440;-67
2021/05/21 08:59:18;;;;;;;3.43;1.13;;;18.90;99.90;;;;;;5005915;28;20494;-67
2021/05/21 09:01:52;;;;;;;2.23;1.00;;;19.10;99.90;;;;;;4991689;28;20373;-67
2021/05/21 09:04:23;;;;;;;2.50;1.20;;;19.50;99.90;;;;;;4991418;28;20428;-69
2021/05/21 09:06:50;;;;;;;2.07;1.10;;;19.80;99.90;;;;;;4991863;28;20454;-67
2021/05/21 09:09:20;;;;;;;0.93;0.63;;;19.80;99.90;;;;;;4991456;28;20422;-67
2021/05/21 09:11:48;;;;;;;1.20;0.93;;;20.10;99.90;;;;;;4991377;28;20417;-68
2021/05/21 09:14:18;;;;;;;4.53;1.40;;;20.20;99.90;;;;;;4991195;28;20485;-67
2021/05/21 09:16:47;;;;;;;1.37;0.90;;;20.20;99.90;;;;;;5006503;28;20857;-67
2021/05/21 09:19:16;;;;;;;1.60;0.80;;;20.00;99.90;;;;;;4991303;28;21015;-67
2021/05/21 09:22:00;;;;;;;1.63;1.07;;;19.90;99.90;;;;;;4991266;28;20400;-66
2021/05/21 09:24:32;;;;;;;1.83;1.03;;;19.60;99.90;;;;;;4991899;28;20446;-69
2021/05/21 09:27:00;;;;;;;2.03;1.37;;;19.60;99.90;;;;;;4991649;28;20443;-68
2021/05/21 09:29:41;;;;;;;1.40;1.10;;;19.70;99.90;;;;;;4992296;28;20438;-69
2021/05/21 09:32:29;;;;;;;1.20;0.83;;;19.80;99.90;;;;;;4991596;28;20397;-66
2021/05/21 09:35:06;;;;;;;2.13;1.27;;;19.70;99.90;;;;;;4991487;28;20404;-67
2021/05/21 09:37:36;;;;;;;1.93;0.87;;;20.10;99.90;;;;;;4991049;28;20511;-68
2021/05/21 09:40:11;;;;;;;1.53;0.80;;;20.40;99.90;;;;;;4991138;28;20484;-67
2021/05/21 09:42:55;;;;;;;1.70;0.80;;;20.60;99.90;;;;;;4991036;28;20446;-68
2021/05/21 09:45:28;;;;;;;2.30;0.80;;;20.60;99.90;;;;;;4989946;28;20465;-68
2021/05/21 09:48:03;;;;;;;1.00;0.70;;;20.50;99.90;;;;;;4991616;28;20401;-69
2021/05/21 09:50:37;;;;;;;3.60;0.90;;;20.70;99.90;;;;;;4991462;28;20403;-67
2021/05/21 09:53:11;;;;;;;1.90;0.73;;;20.70;99.90;;;;;;4991522;28;20441;-68
2021/05/21 09:55:42;;;;;;;1.60;1.00;;;20.70;99.90;;;;;;4991343;28;20934;-67
2021/05/21 09:58:24;;;;;;;2.03;1.30;;;20.80;99.90;;;;;;4991765;28;20553;-68
2021/05/21 10:01:05;;;;;;;1.60;0.90;;;21.20;99.90;;;;;;4991730;28;20393;-67
2021/05/21 10:03:33;;;;;;;1.93;1.10;;;21.30;99.90;;;;;;4991389;28;20441;-66
2021/05/21 10:06:02;;;;;;;1.90;1.40;;;21.30;99.90;;;;;;4991608;28;20480;-69
2021/05/21 10:08:32;;;;;;;1.20;0.80;;;21.20;99.90;;;;;;4991624;28;20895;-68
2021/05/21 10:11:00;;;;;;;1.33;0.80;;;21.20;99.90;;;;;;4994667;28;20429;-69
2021/05/21 10:13:28;;;;;;;1.77;0.80;;;20.80;99.90;;;;;;4995415;28;20445;-68
2021/05/21 10:15:56;;;;;;;1.60;0.83;;;20.60;99.90;;;;;;4995033;28;20453;-68
2021/05/21 10:18:26;;;;;;;1.40;0.73;;;20.50;99.90;;;;;;4994628;28;20469;-68
2021/05/21 10:20:55;;;;;;;3.87;1.00;;;20.70;99.90;;;;;;4994283;28;20404;-67
2021/05/21 10:23:25;;;;;;;1.20;0.60;;;20.50;99.90;;;;;;4994461;28;20459;-68
2021/05/21 10:25:56;;;;;;;1.13;0.70;;;20.30;99.90;;;;;;4994335;28;20405;-67
2021/05/21 10:28:29;;;;;;;1.63;0.70;;;20.10;99.90;;;;;;4994471;28;20809;-67
2021/05/21 10:30:59;;;;;;;2.07;0.97;;;20.00;99.90;;;;;;4994618;28;20436;-68
2021/05/21 10:33:31;;;;;;;1.60;0.80;;;19.90;99.90;;;;;;4993977;28;20954;-68
2021/05/21 10:36:30;;;;;;;1.37;1.27;;;20.20;99.90;;;;;;4993994;28;20397;-67
2021/05/21 10:39:18;;;;;;;1.10;0.70;;;20.60;99.90;;;;;;4994128;28;20488;-68
2021/05/21 10:42:20;;;;;;;1.43;0.87;;;20.70;99.90;;;;;;4994001;28;20790;-66
2021/05/21 10:45:12;;;;;;;1.00;0.70;;;21.00;99.90;;;;;;4994415;28;20432;-67
2021/05/21 10:47:40;;;;;;;1.03;0.60;;;20.90;99.90;;;;;;4994257;28;20821;-66
2021/05/21 10:50:16;;;;;;;0.97;0.60;;;20.80;99.90;;;;;;4994119;28;20404;-71
2021/05/21 10:52:59;;;;;;;1.20;0.60;;;20.70;99.90;;;;;;4994166;28;20446;-67
2021/05/21 10:55:42;;;;;;;1.73;0.80;;;20.60;99.90;;;;;;4996579;28;20506;-68
2021/05/21 10:58:16;;;;;;;1.40;1.10;;;20.40;99.90;;;;;;4996363;28;20468;-69
2021/05/21 11:01:23;;;;;;;1.10;0.70;;;20.00;99.90;;;;;;4996011;28;20512;-68
2021/05/21 11:04:08;;;;;;;2.90;0.70;;;19.90;99.90;;;;;;4993451;28;20424;-67
2021/05/21 11:06:51;;;;;;;1.00;0.60;;;20.00;99.90;;;;;;4993870;28;20437;-68
2021/05/21 11:09:21;;;;;;;2.30;0.70;;;20.00;99.90;;;;;;5008585;28;20440;-69
2021/05/21 11:11:52;;;;;;;1.10;0.70;;;19.90;99.90;;;;;;4993301;28;20408;-68
2021/05/21 11:14:32;;;;;;;1.53;1.13;;;20.40;99.90;;;;;;4993454;28;20822;-68
2021/05/21 11:17:20;;;;;;;1.40;1.17;;;21.00;99.90;;;;;;4993694;28;20450;-68
2021/05/21 11:19:50;;;;;;;1.77;1.07;;;21.50;99.90;;;;;;4993322;28;20500;-68
2021/05/21 11:22:30;;;;;;;3.00;0.97;;;21.40;99.90;;;;;;4992415;28;20414;-68
2021/05/21 11:25:01;;;;;;;1.90;0.90;;;20.80;99.90;;;;;;4993760;28;20401;-66
2021/05/21 11:27:29;;;;;;;1.60;0.90;;;20.40;99.90;;;;;;4993379;28;20393;-68
2021/05/21 11:30:01;;;;;;;2.40;0.87;;;20.20;99.90;;;;;;5008268;28;20401;-69
2021/05/21 11:32:29;;;;;;;1.30;0.60;;;20.00;99.90;;;;;;4992721;28;20504;-68
2021/05/21 11:34:57;;;;;;;1.70;1.30;;;20.10;99.90;;;;;;4992909;28;20418;-68
2021/05/21 11:37:28;;;;;;;1.67;0.97;;;20.20;99.90;;;;;;5008005;28;20434;-67
2021/05/21 11:39:57;;;;;;;2.17;1.27;;;20.30;99.90;;;;;;4992938;28;20465;-68
2021/05/21 11:42:27;;;;;;;1.30;0.80;;;20.30;99.90;;;;;;4992665;28;20491;-68
2021/05/21 11:44:57;;;;;;;6.03;0.77;;;20.30;99.90;;;;;;4992881;28;20429;-68
2021/05/21 11:47:27;;;;;;;1.93;0.90;;;20.50;99.90;;;;;;5007948;28;20404;-67
2021/05/21 11:49:57;;;;;;;1.60;0.67;;;20.90;99.90;;;;;;4992782;28;20397;-67
2021/05/21 11:52:25;;;;;;;2.30;0.83;;;21.50;99.90;;;;;;4992454;28;20508;-67
2021/05/21 11:54:57;;;;;;;1.80;0.80;;;22.00;99.90;;;;;;4992566;28;20910;-67
2021/05/21 11:57:25;;;;;;;1.23;0.80;;;21.80;99.90;;;;;;4992567;28;20426;-67
2021/05/21 11:59:54;;;;;;;1.43;0.87;;;21.60;99.90;;;;;;4992623;28;20450;-68
2021/05/21 12:02:22;;;;;;;1.73;1.00;;;21.40;99.90;;;;;;4992688;28;20537;-67
2021/05/21 12:04:51;;;;;;;2.60;0.90;;;21.40;99.90;;;;;;4992379;28;20422;-67
2021/05/21 12:07:21;;;;;;;2.17;0.70;;;21.30;99.90;;;;;;4992621;28;20454;-67
2021/05/21 12:09:54;;;;;;;2.00;0.80;;;21.40;99.90;;;;;;5007451;28;20434;-67
2021/05/21 12:12:23;;;;;;;1.50;1.00;;;21.60;99.90;;;;;;4992397;28;20965;-67
2021/05/21 12:14:51;;;;;;;1.20;0.70;;;21.70;99.90;;;;;;5007467;28;20420;-67
2021/05/21 12:17:19;;;;;;;2.00;1.47;;;21.60;99.90;;;;;;4992310;28;20736;-67
2021/05/21 12:19:47;;;;;;;2.80;0.80;;;21.50;99.90;;;;;;4992058;28;20473;-69
2021/05/21 12:22:15;;;;;;;1.60;1.00;;;21.40;99.90;;;;;;5007015;28;20434;-67
2021/05/21 12:24:43;;;;;;;1.57;0.83;;;21.30;99.90;;;;;;4991691;28;20802;-67
2021/05/21 12:27:11;;;;;;;1.00;0.70;;;21.70;99.90;;;;;;4993208;28;20399;-69
2021/05/21 12:29:39;;;;;;;1.20;0.70;;;21.90;99.90;;;;;;4992459;28;20472;-68
2021/05/21 12:32:08;;;;;;;1.00;0.60;;;21.60;99.90;;;;;;4992000;28;20513;-68
2021/05/21 12:34:36;;;;;;;2.17;0.90;;;21.90;99.90;;;;;;4992211;28;20921;-68
2021/05/21 12:37:06;;;;;;;2.97;0.83;;;22.20;99.90;;;;;;4992920;28;20914;-68
2021/05/21 12:39:39;;;;;;;2.63;0.90;;;22.40;99.90;;;;;;5007438;28;20576;-69
2021/05/21 12:42:07;;;;;;;1.30;0.80;;;22.50;99.90;;;;;;4992187;28;20855;-67
2021/05/21 12:44:44;;;;;;;1.63;1.53;;;22.80;99.90;;;;;;4992757;28;20401;-67
2021/05/21 12:47:14;;;;;;;1.47;0.60;;;23.20;99.90;;;;;;4975637;28;20441;-67
2021/05/21 12:49:47;;;;;;;2.30;1.00;;;23.00;99.90;;;;;;4993378;28;20489;-70
2021/05/21 12:52:15;;;;;;;1.10;0.80;;;22.70;99.90;;;;;;4992437;28;20488;-68
2021/05/21 12:54:44;;;;;;;1.50;0.97;;;22.20;99.90;;;;;;5008475;28;20432;-68
2021/05/21 12:57:18;;;;;;;1.07;0.60;;;22.00;99.90;;;;;;4993374;28;20418;-67
2021/05/21 12:59:49;;;;;;;1.00;0.60;;;21.90;99.90;;;;;;4993499;28;20989;-68